Time;durP1;ratioP1;P1;durP2;ratioP2;P2;SDS_P1;SDS_P2;PMS_P1;PMS_P2;Temp;Humidity;BMP_temperature;BMP_pressure;BME280_temperature;BME280_humidity;BME280_pressure;Samples;Min_cycle;Max_cycle;Signal;HPM_P1;HPM_P2
2024/01/09 00:01:30;;;;;;;3.37;2.73;;;;;-5.70;96590.00;;;;5053489;28;20196;-62
2024/01/09 00:03:57;;;;;;;2.27;2.07;;;;;-5.70;96586.00;;;;5053421;28;20196;-62
2024/01/09 00:06:27;;;;;;;2.93;2.57;;;;;-5.70;96578.00;;;;5053475;28;20260;-62
2024/01/09 00:08:55;;;;;;;3.60;3.10;;;;;-5.80;96575.00;;;;5053601;28;20207;-62
2024/01/09 00:11:22;;;;;;;3.87;3.00;;;;;-5.70;96589.00;;;;5053294;28;20188;-62
2024/01/09 00:13:49;;;;;;;2.13;1.93;;;;;-5.70;96577.00;;;;5053759;28;20555;-62
2024/01/09 00:16:19;;;;;;;5.97;2.97;;;;;-5.70;96577.00;;;;5052331;28;20295;-62
2024/01/09 00:18:53;;;;;;;2.37;2.27;;;;;-5.70;96582.00;;;;5053342;28;20561;-62
2024/01/09 00:21:20;;;;;;;1.40;1.40;;;;;-5.70;96580.00;;;;5053817;28;20306;-62
2024/01/09 00:23:49;;;;;;;2.67;2.10;;;;;-5.70;96581.00;;;;5051856;28;20242;-63
2024/01/09 00:26:17;;;;;;;3.63;3.27;;;;;-5.70;96587.00;;;;5053268;28;20210;-62
2024/01/09 00:28:44;;;;;;;3.73;3.40;;;;;-5.70;96584.00;;;;5053399;28;20227;-63
2024/01/09 00:31:12;;;;;;;5.47;2.73;;;;;-5.80;96569.00;;;;5051937;28;20203;-62
2024/01/09 00:33:39;;;;;;;2.90;2.63;;;;;-5.80;96585.00;;;;5053260;28;20239;-63
2024/01/09 00:36:07;;;;;;;1.93;1.83;;;;;-5.90;96582.00;;;;5053238;28;20231;-63
2024/01/09 00:38:36;;;;;;;4.10;2.53;;;;;-5.90;96582.00;;;;5053083;28;20197;-63
2024/01/09 00:41:05;;;;;;;5.67;5.17;;;;;-5.90;96583.00;;;;5053046;28;20196;-63
2024/01/09 00:43:32;;;;;;;7.07;4.20;;;;;-5.90;96579.00;;;;5053087;28;20210;-63
2024/01/09 00:46:00;;;;;;;2.97;2.60;;;;;-5.90;96584.00;;;;5052865;28;20192;-63
2024/01/09 00:48:27;;;;;;;3.17;2.97;;;;;-6.20;96588.00;;;;5051729;28;20544;-63
2024/01/09 00:50:54;;;;;;;2.73;2.53;;;;;-6.00;96585.00;;;;5053376;28;20652;-63
2024/01/09 00:53:24;;;;;;;2.87;2.67;;;;;-6.10;96575.00;;;;5052710;28;20227;-63
2024/01/09 00:55:51;;;;;;;2.53;2.33;;;;;-6.10;96583.00;;;;5052687;28;20220;-62
2024/01/09 00:58:20;;;;;;;2.60;2.40;;;;;-6.10;96591.00;;;;5052657;28;20211;-62
2024/01/09 01:00:48;;;;;;;1.87;1.77;;;;;-6.20;96590.00;;;;5052888;28;20211;-62
2024/01/09 01:03:15;;;;;;;2.50;2.37;;;;;-6.20;96586.00;;;;5051388;28;20221;-62
2024/01/09 01:05:43;;;;;;;3.47;3.17;;;;;-6.20;96589.00;;;;5052706;28;20184;-62
2024/01/09 01:08:10;;;;;;;2.50;2.30;;;;;-6.20;96588.00;;;;5053350;28;20189;-62
2024/01/09 01:10:37;;;;;;;2.97;2.27;;;;;-6.10;96585.00;;;;5053148;28;20216;-62
2024/01/09 01:13:05;;;;;;;3.43;3.13;;;;;-6.20;96594.00;;;;5052681;28;20208;-62
2024/01/09 01:15:34;;;;;;;2.67;2.37;;;;;-6.10;96599.00;;;;5052631;28;20574;-63
2024/01/09 01:18:01;;;;;;;2.50;2.30;;;;;-6.20;96589.00;;;;5053175;28;20196;-63
2024/01/09 01:20:28;;;;;;;2.07;1.87;;;;;-6.30;96595.00;;;;5052607;28;20193;-63
2024/01/09 01:22:56;;;;;;;2.93;2.73;;;;;-6.20;96589.00;;;;5052512;28;20700;-63
2024/01/09 01:25:23;;;;;;;3.13;2.00;;;;;-6.20;96596.00;;;;5052870;28;20571;-63
2024/01/09 01:27:50;;;;;;;2.43;2.23;;;;;-6.20;96603.00;;;;5055472;28;20653;-63
2024/01/09 01:30:18;;;;;;;1.70;1.60;;;;;-6.20;96595.00;;;;5056709;28;20244;-63
2024/01/09 01:32:47;;;;;;;2.80;2.30;;;;;-6.20;96601.00;;;;5056417;28;20265;-62
2024/01/09 01:35:14;;;;;;;1.63;1.53;;;;;-6.30;96595.00;;;;5056013;28;20195;-62
2024/01/09 01:37:42;;;;;;;2.80;2.63;;;;;-6.40;96596.00;;;;5056497;28;20196;-62
2024/01/09 01:40:10;;;;;;;2.93;2.73;;;;;-6.30;96599.00;;;;5056034;28;20194;-63
2024/01/09 01:42:37;;;;;;;1.93;1.83;;;;;-6.30;96597.00;;;;5055967;28;20561;-63
2024/01/09 01:45:16;;;;;;;5.67;3.20;;;;;-6.30;96605.00;;;;5055982;28;20200;-63
2024/01/09 01:47:46;;;;;;;2.00;1.90;;;;;-6.40;96590.00;;;;5056198;28;20276;-63
2024/01/09 01:50:15;;;;;;;1.87;1.80;;;;;-6.40;96603.00;;;;5056075;28;20192;-63
2024/01/09 01:52:44;;;;;;;1.90;1.80;;;;;-6.30;96599.00;;;;5055722;28;20212;-63
2024/01/09 01:55:13;;;;;;;7.13;2.33;;;;;-6.40;96608.00;;;;5054429;28;20231;-62
2024/01/09 01:57:41;;;;;;;2.77;2.57;;;;;-6.40;96607.00;;;;5055772;28;20221;-62
2024/01/09 02:00:10;;;;;;;2.17;2.07;;;;;-6.30;96602.00;;;;5055657;28;20564;-63
2024/01/09 02:02:38;;;;;;;2.50;1.90;;;;;-6.50;96605.00;;;;5055584;28;20216;-63
2024/01/09 02:05:08;;;;;;;3.10;2.90;;;;;-6.40;96602.00;;;;5056540;28;20529;-63
2024/01/09 02:07:36;;;;;;;2.17;2.07;;;;;-6.50;96604.00;;;;5056384;28;20525;-62
2024/01/09 02:10:04;;;;;;;3.23;2.70;;;;;-6.40;96611.00;;;;5055740;28;20188;-63
2024/01/09 02:12:32;;;;;;;6.43;3.27;;;;;-6.50;96604.00;;;;5056110;28;20261;-63
2024/01/09 02:14:59;;;;;;;3.43;2.70;;;;;-6.50;96598.00;;;;5056021;28;20196;-62
2024/01/09 02:17:28;;;;;;;3.10;2.53;;;;;-6.60;96611.00;;;;5055736;28;20612;-62
2024/01/09 02:19:55;;;;;;;3.23;2.93;;;;;-6.60;96598.00;;;;5056510;28;20188;-62
2024/01/09 02:22:24;;;;;;;3.23;2.83;;;;;-6.50;96599.00;;;;5055489;28;20208;-62
2024/01/09 02:24:51;;;;;;;2.10;2.00;;;;;-6.60;96611.00;;;;5055190;28;20196;-62
2024/01/09 02:27:27;;;;;;;10.10;3.23;;;;;-6.60;96596.00;;;;5055217;28;20196;-62
2024/01/09 02:29:56;;;;;;;3.80;3.50;;;;;-6.50;96601.00;;;;5055127;28;20189;-62
2024/01/09 02:32:24;;;;;;;2.27;2.10;;;;;-6.70;96606.00;;;;5055262;28;20215;-62
2024/01/09 02:34:53;;;;;;;2.93;2.47;;;;;-6.60;96602.00;;;;5054995;28;20204;-62
2024/01/09 02:37:20;;;;;;;2.67;2.47;;;;;-6.60;96594.00;;;;5054824;28;20223;-62
2024/01/09 02:39:47;;;;;;;3.80;2.33;;;;;-6.70;96595.00;;;;5054033;28;20196;-62
2024/01/09 02:42:15;;;;;;;2.67;2.47;;;;;-6.70;96598.00;;;;5053385;28;20297;-62
2024/01/09 02:44:42;;;;;;;2.27;2.07;;;;;-6.70;96592.00;;;;5054828;28;20196;-62
2024/01/09 02:47:11;;;;;;;2.17;1.67;;;;;-6.70;96589.00;;;;5054993;28;20188;-62
2024/01/09 02:49:38;;;;;;;1.97;1.87;;;;;-6.70;96594.00;;;;5055192;28;20656;-62
2024/01/09 02:52:08;;;;;;;5.80;2.90;;;;;-6.70;96594.00;;;;5054616;28;20216;-62
2024/01/09 02:54:36;;;;;;;5.40;3.20;;;;;-6.70;96583.00;;;;5054603;28;20192;-62
2024/01/09 02:57:03;;;;;;;2.20;2.10;;;;;-6.80;96585.00;;;;5054727;28;20219;-62
2024/01/09 02:59:31;;;;;;;2.43;2.33;;;;;-6.80;96580.00;;;;5054554;28;20235;-62
2024/01/09 03:01:58;;;;;;;3.73;3.07;;;;;-6.80;96579.00;;;;5053414;28;20559;-62
2024/01/09 03:04:27;;;;;;;1.40;1.30;;;;;-6.80;96578.00;;;;5054426;28;20192;-62
2024/01/09 03:06:54;;;;;;;1.60;1.53;;;;;-6.80;96573.00;;;;5054734;28;20698;-62
2024/01/09 03:09:21;;;;;;;3.70;3.00;;;;;-6.80;96573.00;;;;5054400;28;20246;-62
2024/01/09 03:11:49;;;;;;;3.87;2.37;;;;;-6.80;96569.00;;;;5053661;28;20220;-62
2024/01/09 03:14:16;;;;;;;5.17;2.30;;;;;-6.90;96576.00;;;;5052960;28;20192;-62
2024/01/09 03:16:47;;;;;;;3.90;3.17;;;;;-6.90;96583.00;;;;5054014;28;20619;-62
2024/01/09 03:19:14;;;;;;;3.57;2.67;;;;;-7.00;96580.00;;;;5054236;28;20176;-62
2024/01/09 03:21:43;;;;;;;3.07;2.87;;;;;-7.00;96579.00;;;;5054062;28;20227;-62
2024/01/09 03:24:10;;;;;;;3.13;2.73;;;;;-7.10;96574.00;;;;5054314;28;20196;-63
2024/01/09 03:26:37;;;;;;;4.57;3.37;;;;;-7.10;96580.00;;;;5052739;28;20211;-63
2024/01/09 03:29:05;;;;;;;3.33;3.00;;;;;-7.00;96574.00;;;;5053952;28;20200;-62
2024/01/09 03:31:33;;;;;;;5.13;2.43;;;;;-7.20;96579.00;;;;5054325;28;20655;-62
2024/01/09 03:34:00;;;;;;;2.10;1.90;;;;;-7.30;96576.00;;;;5053863;28;20279;-62
2024/01/09 03:36:28;;;;;;;3.90;2.73;;;;;-7.20;96567.00;;;;5053635;28;20235;-62
2024/01/09 03:38:56;;;;;;;1.97;1.87;;;;;-7.10;96577.00;;;;5053946;28;20197;-62
2024/01/09 03:41:24;;;;;;;3.43;2.67;;;;;-7.20;96572.00;;;;5053673;28;20212;-62
2024/01/09 03:43:51;;;;;;;2.93;2.47;;;;;-7.20;96574.00;;;;5053637;28;20192;-62
2024/01/09 03:46:18;;;;;;;3.37;2.33;;;;;-7.20;96573.00;;;;5053628;28;20247;-63
2024/01/09 03:48:46;;;;;;;5.03;3.40;;;;;-7.30;96586.00;;;;5053562;28;20203;-63
2024/01/09 03:51:13;;;;;;;5.50;3.23;;;;;-7.30;96574.00;;;;5053528;28;20597;-62
2024/01/09 03:53:40;;;;;;;32.00;1.87;;;;;-7.20;96596.00;;;;5053638;28;20231;-62
2024/01/09 03:56:09;;;;;;;3.53;3.23;;;;;-7.40;96579.00;;;;5053296;28;20204;-62
2024/01/09 03:58:37;;;;;;;2.27;2.07;;;;;-7.40;96582.00;;;;5053848;28;20193;-63
2024/01/09 04:01:04;;;;;;;3.60;2.97;;;;;-7.30;96588.00;;;;5053306;28;20657;-63
2024/01/09 04:03:32;;;;;;;4.37;3.30;;;;;-7.30;96593.00;;;;5053512;28;20235;-63
2024/01/09 04:05:59;;;;;;;2.57;2.47;;;;;-7.30;96573.00;;;;5053389;28;20192;-63
2024/01/09 04:08:26;;;;;;;4.90;2.70;;;;;-7.20;96576.00;;;;5053472;28;20557;-62
2024/01/09 04:10:54;;;;;;;2.43;2.33;;;;;-7.10;96566.00;;;;5053494;28;20204;-62
2024/01/09 04:13:22;;;;;;;3.87;3.17;;;;;-7.10;96568.00;;;;5053217;28;20212;-62
2024/01/09 04:15:50;;;;;;;3.50;3.20;;;;;-7.10;96560.00;;;;5053445;28;20698;-62
2024/01/09 04:18:17;;;;;;;2.77;2.57;;;;;-7.10;96576.00;;;;5053086;28;20239;-62
2024/01/09 04:20:44;;;;;;;2.20;2.10;;;;;-7.10;96571.00;;;;5053118;28;20195;-63
2024/01/09 04:23:12;;;;;;;6.97;2.43;;;;;-7.00;96568.00;;;;5053096;28;20212;-62
2024/01/09 04:25:39;;;;;;;3.00;2.80;;;;;-7.10;96568.00;;;;5053206;28;20701;-62
2024/01/09 04:28:07;;;;;;;5.13;2.93;;;;;-7.20;96561.00;;;;5053246;28;20184;-62
2024/01/09 04:30:35;;;;;;;3.20;2.93;;;;;-7.30;96573.00;;;;5053153;28;20183;-62
2024/01/09 04:33:03;;;;;;;2.33;2.20;;;;;-7.20;96569.00;;;;5053233;28;20706;-63
2024/01/09 04:35:30;;;;;;;4.30;2.93;;;;;-7.40;96578.00;;;;5053220;28;20636;-63
2024/01/09 04:37:57;;;;;;;3.87;3.53;;;;;-7.40;96575.00;;;;5053103;28;20219;-63
2024/01/09 04:40:25;;;;;;;2.87;2.67;;;;;-7.50;96575.00;;;;5052906;28;20196;-62
2024/01/09 04:42:52;;;;;;;3.33;2.90;;;;;-7.50;96568.00;;;;5052917;28;20644;-62
2024/01/09 04:45:20;;;;;;;3.23;2.93;;;;;-7.50;96578.00;;;;5052979;28;20198;-62
2024/01/09 04:47:48;;;;;;;3.80;3.40;;;;;-7.40;96566.00;;;;5053013;28;20188;-62
2024/01/09 04:50:16;;;;;;;3.50;3.20;;;;;-7.40;96566.00;;;;5053167;28;20722;-62
2024/01/09 04:52:43;;;;;;;6.60;2.87;;;;;-7.30;96572.00;;;;5053294;28;20223;-62
2024/01/09 04:55:11;;;;;;;3.10;2.90;;;;;-7.10;96564.00;;;;5053258;28;20200;-62
2024/01/09 04:57:39;;;;;;;2.40;2.20;;;;;-7.20;96561.00;;;;5053166;28;20219;-62
2024/01/09 05:00:08;;;;;;;3.27;3.00;;;;;-7.30;96561.00;;;;5052910;28;20246;-62
2024/01/09 05:02:35;;;;;;;3.33;3.03;;;;;-7.30;96560.00;;;;5055271;28;20215;-62
2024/01/09 05:05:05;;;;;;;3.93;3.30;;;;;-7.30;96570.00;;;;5056957;28;20196;-62
2024/01/09 05:07:32;;;;;;;3.83;2.83;;;;;-7.40;96573.00;;;;5056697;28;20267;-62
2024/01/09 05:09:59;;;;;;;3.07;2.87;;;;;-7.60;96573.00;;;;5056730;28;20195;-62
2024/01/09 05:12:27;;;;;;;3.13;2.83;;;;;-7.50;96571.00;;;;5055244;28;20216;-62
2024/01/09 05:14:54;;;;;;;2.17;2.07;;;;;-7.40;96574.00;;;;5056517;28;20191;-62
2024/01/09 05:17:21;;;;;;;2.70;2.50;;;;;-7.50;96568.00;;;;5056380;28;20216;-62
2024/01/09 05:19:49;;;;;;;3.67;3.30;;;;;-7.60;96567.00;;;;5056647;28;20196;-63
2024/01/09 05:22:17;;;;;;;1.87;1.77;;;;;-7.40;96578.00;;;;5056514;28;20295;-62
2024/01/09 05:24:45;;;;;;;4.73;3.27;;;;;-7.50;96573.00;;;;5056698;28;20295;-62
2024/01/09 05:27:12;;;;;;;4.13;2.57;;;;;-7.50;96588.00;;;;5056337;28;20184;-62
2024/01/09 05:29:39;;;;;;;3.87;3.33;;;;;-7.50;96570.00;;;;5056392;28;20250;-62
2024/01/09 05:32:07;;;;;;;4.03;3.17;;;;;-7.40;96582.00;;;;5056297;28;20212;-62
2024/01/09 05:34:35;;;;;;;1.97;1.87;;;;;-7.40;96585.00;;;;5056114;28;20227;-62
2024/01/09 05:37:02;;;;;;;2.03;1.93;;;;;-7.40;96579.00;;;;5056850;28;20212;-62
2024/01/09 05:39:31;;;;;;;7.17;3.93;;;;;-7.50;96578.00;;;;5056249;28;20250;-63
2024/01/09 05:41:58;;;;;;;9.80;4.33;;;;;-7.30;96572.00;;;;5056138;28;20223;-62
2024/01/09 05:44:25;;;;;;;4.77;4.37;;;;;-7.50;96577.00;;;;5056309;28;20199;-62
2024/01/09 05:46:53;;;;;;;3.27;2.97;;;;;-7.40;96587.00;;;;5056102;28;20241;-62
2024/01/09 05:49:21;;;;;;;3.00;2.73;;;;;-7.40;96589.00;;;;5055950;28;20262;-62
2024/01/09 05:51:48;;;;;;;3.80;3.50;;;;;-7.40;96581.00;;;;5055938;28;20208;-62
2024/01/09 05:54:16;;;;;;;2.80;2.53;;;;;-7.30;96589.00;;;;5055031;28;20196;-62
2024/01/09 05:56:45;;;;;;;3.73;2.97;;;;;-7.20;96585.00;;;;5055922;28;20200;-63
2024/01/09 05:59:12;;;;;;;2.63;2.43;;;;;-7.30;96595.00;;;;5054530;28;20224;-62
2024/01/09 06:01:39;;;;;;;4.70;2.83;;;;;-7.20;96584.00;;;;5055723;28;20192;-63
2024/01/09 06:04:07;;;;;;;3.30;3.00;;;;;-7.20;96592.00;;;;5055506;28;20200;-62
2024/01/09 06:06:34;;;;;;;3.60;2.60;;;;;-7.20;96585.00;;;;5055913;28;20545;-62
2024/01/09 06:09:02;;;;;;;3.07;2.33;;;;;-7.30;96595.00;;;;5055830;28;20192;-62
2024/01/09 06:11:29;;;;;;;3.30;3.07;;;;;-7.30;96596.00;;;;5055300;28;20196;-62
2024/01/09 06:13:58;;;;;;;4.17;3.77;;;;;-7.30;96581.00;;;;5055626;28;20202;-62
2024/01/09 06:16:25;;;;;;;3.77;2.63;;;;;-7.40;96586.00;;;;5055858;28;20200;-62
2024/01/09 06:18:53;;;;;;;2.43;2.23;;;;;-7.40;96590.00;;;;5055899;28;20311;-63
2024/01/09 06:21:20;;;;;;;1.73;1.63;;;;;-7.20;96592.00;;;;5054411;28;20199;-62
2024/01/09 06:23:49;;;;;;;5.43;3.77;;;;;-7.20;96596.00;;;;5055825;28;20636;-63
2024/01/09 06:26:17;;;;;;;4.10;2.47;;;;;-7.20;96602.00;;;;5055970;28;20183;-62
2024/01/09 06:28:44;;;;;;;3.40;2.70;;;;;-7.40;96593.00;;;;5058348;28;20188;-62
2024/01/09 06:31:13;;;;;;;3.87;3.57;;;;;-7.30;96592.00;;;;5058394;28;20200;-62
2024/01/09 06:33:41;;;;;;;3.33;2.30;;;;;-7.30;96596.00;;;;5057456;28;20219;-62
2024/01/09 06:36:08;;;;;;;4.90;4.17;;;;;-7.30;96590.00;;;;5056410;28;20652;-62
2024/01/09 06:38:35;;;;;;;18.47;3.17;;;;;-7.30;96585.00;;;;5055772;28;20212;-62
2024/01/09 06:41:03;;;;;;;4.93;3.63;;;;;-7.00;96543.00;;;;5055356;28;20563;-62
2024/01/09 06:43:30;;;;;;;2.83;2.00;;;;;-6.60;96593.00;;;;5055292;28;20208;-62
2024/01/09 06:45:58;;;;;;;1.57;1.53;;;;;-6.50;96589.00;;;;5055462;28;20188;-62
2024/01/09 06:48:26;;;;;;;2.63;2.43;;;;;-6.30;96588.00;;;;5055144;28;20195;-62
2024/01/09 06:50:54;;;;;;;7.80;2.93;;;;;-6.40;96601.00;;;;5054850;28;20202;-62
2024/01/09 06:53:21;;;;;;;5.10;3.47;;;;;-6.70;96584.00;;;;5054886;28;20223;-62
2024/01/09 06:55:49;;;;;;;6.73;4.67;;;;;-6.70;96600.00;;;;5055716;28;20556;-62
2024/01/09 06:58:17;;;;;;;5.57;4.33;;;;;-6.70;96601.00;;;;5054973;28;20227;-62
2024/01/09 07:00:44;;;;;;;3.10;2.73;;;;;-6.80;96607.00;;;;5055100;28;20661;-62
2024/01/09 07:03:12;;;;;;;3.83;3.27;;;;;-6.80;96601.00;;;;5054809;28;20234;-62
2024/01/09 07:05:40;;;;;;;9.73;2.83;;;;;-6.80;96600.00;;;;5056017;28;20196;-61
2024/01/09 07:08:08;;;;;;;4.90;3.30;;;;;-6.90;96601.00;;;;5053574;28;20197;-62
2024/01/09 07:10:35;;;;;;;2.50;2.40;;;;;-7.00;96600.00;;;;5054840;28;20197;-62
2024/01/09 07:13:03;;;;;;;5.50;3.57;;;;;-7.00;96601.00;;;;5054612;28;20216;-62
2024/01/09 07:15:30;;;;;;;1.97;1.87;;;;;-7.00;96590.00;;;;5054637;28;20195;-62
2024/01/09 07:17:58;;;;;;;2.97;2.57;;;;;-7.00;96597.00;;;;5054557;28;20691;-61
2024/01/09 07:20:25;;;;;;;3.33;3.07;;;;;-7.10;96596.00;;;;5054841;28;20200;-62
2024/01/09 07:22:54;;;;;;;4.17;2.43;;;;;-7.10;96616.00;;;;5054487;28;20210;-63
2024/01/09 07:25:21;;;;;;;3.77;3.47;;;;;-7.10;96613.00;;;;5052779;28;20258;-62
2024/01/09 07:27:49;;;;;;;3.13;2.73;;;;;-7.10;96611.00;;;;5055994;28;20583;-62
2024/01/09 07:30:19;;;;;;;4.33;2.23;;;;;-7.20;96615.00;;;;5054741;28;20280;-63
2024/01/09 07:32:46;;;;;;;4.63;2.43;;;;;-7.20;96606.00;;;;5055024;28;20223;-61
2024/01/09 07:35:15;;;;;;;2.87;1.87;;;;;-7.10;96617.00;;;;5054930;28;20196;-61
2024/01/09 07:37:43;;;;;;;1.97;1.87;;;;;-7.10;96617.00;;;;5054643;28;20563;-61
2024/01/09 07:40:13;;;;;;;2.50;2.33;;;;;-7.00;96612.00;;;;5054793;28;20196;-61
2024/01/09 07:42:40;;;;;;;2.80;2.60;;;;;-7.00;96603.00;;;;5054718;28;20208;-63
2024/01/09 07:45:11;;;;;;;2.70;2.20;;;;;-7.00;96611.00;;;;5053011;28;20200;-66
2024/01/09 07:47:38;;;;;;;7.30;2.90;;;;;-7.00;96611.00;;;;5050596;28;20188;-64
2024/01/09 07:50:08;;;;;;;3.20;2.87;;;;;-6.90;96617.00;;;;5050068;28;20204;-64
2024/01/09 07:52:35;;;;;;;2.73;2.37;;;;;-7.00;96621.00;;;;5052007;28;20226;-63
2024/01/09 07:55:03;;;;;;;3.47;3.17;;;;;-6.90;96614.00;;;;5052528;28;20207;-64
2024/01/09 07:57:33;;;;;;;4.27;3.13;;;;;-6.90;96616.00;;;;5048943;28;20338;-60
2024/01/09 08:00:00;;;;;;;2.10;2.00;;;;;-6.80;96617.00;;;;5051732;28;20249;-61
2024/01/09 08:02:29;;;;;;;5.63;5.10;;;;;-6.80;96615.00;;;;5052059;28;20253;-63
2024/01/09 08:04:57;;;;;;;5.53;4.43;;;;;-6.80;96621.00;;;;5051549;28;20231;-62
2024/01/09 08:07:24;;;;;;;3.60;3.27;;;;;-6.80;96617.00;;;;5051626;28;20200;-62
2024/01/09 08:09:51;;;;;;;4.83;3.83;;;;;-6.90;96618.00;;;;5050734;28;20577;-62
2024/01/09 08:12:19;;;;;;;2.50;2.40;;;;;-6.90;96626.00;;;;5051665;28;20216;-62
2024/01/09 08:14:49;;;;;;;2.07;1.97;;;;;-6.90;96623.00;;;;5051759;28;20196;-61
2024/01/09 08:17:16;;;;;;;5.43;3.53;;;;;-6.80;96630.00;;;;5050988;28;20215;-61
2024/01/09 08:19:47;;;;;;;2.83;2.63;;;;;-6.80;96629.00;;;;5050793;28;20192;-61
2024/01/09 08:22:14;;;;;;;6.17;4.63;;;;;-6.60;96639.00;;;;5051356;28;20678;-61
2024/01/09 08:24:42;;;;;;;2.40;2.30;;;;;-6.40;96624.00;;;;5051575;28;20286;-62
2024/01/09 08:27:10;;;;;;;3.33;3.03;;;;;-6.40;96629.00;;;;5050127;28;20199;-61
2024/01/09 08:29:37;;;;;;;3.57;3.27;;;;;-6.30;96627.00;;;;5051191;28;20664;-60
2024/01/09 08:32:07;;;;;;;3.70;3.40;;;;;-6.20;96619.00;;;;5051338;28;20208;-62
2024/01/09 08:34:34;;;;;;;3.10;2.47;;;;;-5.90;96625.00;;;;5051900;28;20231;-62
2024/01/09 08:37:01;;;;;;;3.03;2.83;;;;;-5.90;96629.00;;;;5051786;28;20311;-62
2024/01/09 08:39:29;;;;;;;3.33;3.13;;;;;-5.70;96626.00;;;;5055497;28;20244;-62
2024/01/09 08:41:56;;;;;;;2.50;2.37;;;;;-5.80;96633.00;;;;5055094;28;20639;-62
2024/01/09 08:44:25;;;;;;;1.97;1.87;;;;;-5.70;96631.00;;;;5055124;28;20636;-61
2024/01/09 08:46:53;;;;;;;3.93;3.53;;;;;-5.60;96628.00;;;;5053897;28;20195;-61
2024/01/09 08:49:22;;;;;;;3.00;2.80;;;;;-5.60;96624.00;;;;5055074;28;20196;-61
2024/01/09 08:51:49;;;;;;;3.07;2.80;;;;;-5.50;96611.00;;;;5054617;28;20684;-62
2024/01/09 08:54:17;;;;;;;3.13;2.90;;;;;-5.30;96617.00;;;;5055084;28;20195;-61
2024/01/09 08:56:44;;;;;;;3.37;2.70;;;;;-5.30;96612.00;;;;5054688;28;20281;-61
2024/01/09 08:59:11;;;;;;;3.87;3.57;;;;;-5.10;96603.00;;;;5054836;28;20214;-61
2024/01/09 09:01:42;;;;;;;3.23;3.03;;;;;-5.10;96601.00;;;;5054891;28;20672;-61
2024/01/09 09:04:09;;;;;;;5.80;3.27;;;;;-5.10;96615.00;;;;5052126;28;20202;-61
2024/01/09 09:06:38;;;;;;;12.27;4.27;;;;;-5.00;96617.00;;;;5054477;28;20204;-62
2024/01/09 09:09:06;;;;;;;2.77;2.57;;;;;-5.20;96618.00;;;;5054796;28;20196;-61
2024/01/09 09:11:33;;;;;;;3.37;3.07;;;;;-5.00;96624.00;;;;5054128;28;20250;-61
2024/01/09 09:14:01;;;;;;;6.57;3.27;;;;;-4.80;96629.00;;;;5054944;28;20232;-61
2024/01/09 09:16:29;;;;;;;3.07;2.67;;;;;-4.70;96628.00;;;;5054699;28;20208;-61
2024/01/09 09:18:56;;;;;;;4.70;2.57;;;;;-4.70;96634.00;;;;5054507;28;20613;-61
2024/01/09 09:21:24;;;;;;;2.10;2.00;;;;;-4.60;96621.00;;;;5054543;28;20203;-61
2024/01/09 09:23:53;;;;;;;4.37;3.33;;;;;-4.50;96633.00;;;;5055458;28;20256;-61
2024/01/09 09:26:20;;;;;;;3.50;2.30;;;;;-4.40;96631.00;;;;5056546;28;20677;-61
2024/01/09 09:28:48;;;;;;;5.93;3.27;;;;;-4.90;96625.00;;;;5056239;28;20279;-61
2024/01/09 09:31:16;;;;;;;3.53;2.47;;;;;-4.80;96635.00;;;;5056815;28;20192;-61
2024/01/09 09:33:43;;;;;;;2.90;2.67;;;;;-4.40;96623.00;;;;5054715;28;20291;-61
2024/01/09 09:36:13;;;;;;;10.13;3.17;;;;;-4.40;96619.00;;;;5053208;28;20198;-61
2024/01/09 09:38:41;;;;;;;4.80;3.07;;;;;-4.30;96629.00;;;;5054383;28;20228;-61
2024/01/09 09:41:15;;;;;;;7.90;3.70;;;;;-4.20;96623.00;;;;5052933;28;20307;-61
2024/01/09 09:43:49;;;;;;;2.27;2.03;;;;;-4.20;96622.00;;;;5054060;28;20211;-62
2024/01/09 09:46:22;;;;;;;3.20;3.00;;;;;-4.60;96622.00;;;;5053970;28;20262;-62
2024/01/09 09:48:52;;;;;;;4.07;2.73;;;;;-4.20;96607.00;;;;5053603;28;20190;-61
2024/01/09 09:51:20;;;;;;;7.13;3.87;;;;;-4.00;96622.00;;;;5054022;28;20197;-61
2024/01/09 09:53:48;;;;;;;3.00;2.80;;;;;-3.70;96627.00;;;;5053988;28;20217;-61
2024/01/09 09:56:17;;;;;;;1.63;1.53;;;;;-3.80;96622.00;;;;5053902;28;20243;-61
2024/01/09 09:58:45;;;;;;;12.13;3.57;;;;;-3.50;96622.00;;;;5053564;28;20221;-62
2024/01/09 10:01:14;;;;;;;4.33;3.70;;;;;-3.50;96617.00;;;;5053707;28;20666;-62
2024/01/09 10:04:02;;;;;;;3.87;3.53;;;;;-3.90;96619.00;;;;5053864;28;20305;-62
2024/01/09 10:06:32;;;;;;;3.60;3.30;;;;;-3.80;96614.00;;;;5049757;28;20190;-63
2024/01/09 10:09:03;;;;;;;3.70;3.40;;;;;-3.50;96611.00;;;;5053659;28;20199;-62
2024/01/09 10:11:33;;;;;;;2.77;2.57;;;;;-3.50;96609.00;;;;5048848;28;20688;-62
2024/01/09 10:14:01;;;;;;;2.17;2.07;;;;;-3.60;96618.00;;;;5049162;28;20226;-62
2024/01/09 10:16:29;;;;;;;3.27;3.07;;;;;-3.60;96602.00;;;;5053181;28;20247;-62
2024/01/09 10:18:56;;;;;;;2.27;2.17;;;;;-3.50;96602.00;;;;5053312;28;20306;-61
2024/01/09 10:21:24;;;;;;;4.30;3.53;;;;;-3.30;96606.00;;;;5051560;28;20217;-62
2024/01/09 10:23:55;;;;;;;4.63;3.03;;;;;-3.00;96604.00;;;;5053490;28;20198;-62
2024/01/09 10:26:23;;;;;;;5.10;4.53;;;;;-3.30;96605.00;;;;5053016;28;20250;-62
2024/01/09 10:28:52;;;;;;;5.33;2.80;;;;;-2.90;96599.00;;;;5053205;28;20666;-61
2024/01/09 10:31:20;;;;;;;5.07;3.90;;;;;-3.00;96588.00;;;;5053258;28;20300;-61
2024/01/09 10:33:47;;;;;;;2.60;2.40;;;;;-3.00;96589.00;;;;5052168;28;20393;-61
2024/01/09 10:36:15;;;;;;;3.50;2.60;;;;;-2.90;96587.00;;;;5053401;28;20536;-61
2024/01/09 10:38:44;;;;;;;2.60;2.43;;;;;-2.90;96591.00;;;;5054804;28;20223;-62
2024/01/09 10:41:21;;;;;;;9.47;3.23;;;;;-3.30;96591.00;;;;5052595;28;20286;-62
2024/01/09 10:43:50;;;;;;;3.77;3.47;;;;;-3.20;96596.00;;;;5052984;28;20195;-62
2024/01/09 10:46:20;;;;;;;4.77;3.43;;;;;-2.90;96595.00;;;;5051322;28;20681;-62
2024/01/09 10:48:48;;;;;;;2.20;2.07;;;;;-2.50;96590.00;;;;5052936;28;20198;-61
2024/01/09 10:51:22;;;;;;;2.20;2.10;;;;;-2.40;96590.00;;;;5052263;28;20206;-63
2024/01/09 10:53:51;;;;;;;2.60;2.40;;;;;-2.50;96586.00;;;;5053293;28;20278;-61
2024/01/09 10:56:21;;;;;;;10.07;4.50;;;;;-2.40;96579.00;;;;5048008;28;20195;-61
2024/01/09 10:58:51;;;;;;;3.27;2.97;;;;;-2.50;96576.00;;;;5047649;28;20566;-61
2024/01/09 11:01:18;;;;;;;3.80;3.10;;;;;-2.20;96581.00;;;;5051317;28;20204;-61
2024/01/09 11:03:49;;;;;;;2.47;2.27;;;;;-2.00;96576.00;;;;5052636;28;20614;-61
2024/01/09 11:06:18;;;;;;;5.30;4.80;;;;;-1.50;96563.00;;;;5052207;28;20210;-61
2024/01/09 11:08:50;;;;;;;6.27;4.17;;;;;-1.70;96551.00;;;;5052222;28;20200;-60
2024/01/09 11:11:19;;;;;;;3.63;3.33;;;;;-1.10;96552.00;;;;5052152;28;20195;-60
2024/01/09 11:13:52;;;;;;;3.90;3.37;;;;;-1.00;96553.00;;;;5052461;28;20286;-62
2024/01/09 11:16:21;;;;;;;2.83;2.60;;;;;-0.40;96525.00;;;;5052316;28;20196;-61
2024/01/09 11:18:51;;;;;;;3.67;2.97;;;;;-0.10;96516.00;;;;5051908;28;20562;-61
2024/01/09 11:21:24;;;;;;;9.07;3.93;;;;;0.20;96491.00;;;;5051315;28;20575;-61
2024/01/09 11:23:57;;;;;;;7.73;3.23;;;;;1.70;96501.00;;;;5052183;28;20192;-63
2024/01/09 11:26:29;;;;;;;3.47;1.53;;;;;1.80;96488.00;;;;5052348;28;20257;-62
2024/01/09 11:28:59;;;;;;;4.07;3.23;;;;;2.10;96486.00;;;;5048286;28;20184;-62
2024/01/09 11:31:29;;;;;;;4.77;3.67;;;;;2.90;96486.00;;;;5051663;28;20196;-62
2024/01/09 11:34:01;;;;;;;2.83;2.63;;;;;3.40;96489.00;;;;5053178;28;20199;-64
2024/01/09 11:36:29;;;;;;;4.53;3.47;;;;;4.90;96479.00;;;;5051935;28;20199;-63
2024/01/09 11:38:59;;;;;;;3.63;3.33;;;;;5.10;96478.00;;;;5051542;28;20395;-63
2024/01/09 11:41:33;;;;;;;2.43;2.23;;;;;5.70;96493.00;;;;5051565;28;20696;-62
2024/01/09 11:44:06;;;;;;;6.10;4.10;;;;;6.30;96489.00;;;;5052381;28;20692;-62
2024/01/09 11:46:36;;;;;;;1.93;1.83;;;;;6.00;96487.00;;;;5052121;28;20207;-62
2024/01/09 11:49:06;;;;;;;12.57;3.23;;;;;7.20;96486.00;;;;5052509;28;20218;-63
2024/01/09 11:51:34;;;;;;;3.63;3.33;;;;;6.90;96477.00;;;;5050264;28;20207;-63
2024/01/09 11:54:03;;;;;;;8.27;4.43;;;;;5.80;96472.00;;;;5052206;28;20561;-65
2024/01/09 11:56:31;;;;;;;6.67;3.40;;;;;7.80;96475.00;;;;5049745;28;20659;-66
2024/01/09 11:58:59;;;;;;;3.33;2.57;;;;;9.30;96469.00;;;;5052148;28;20216;-62
2024/01/09 12:01:28;;;;;;;2.87;2.67;;;;;10.30;96474.00;;;;5050228;28;20204;-62
2024/01/09 12:03:57;;;;;;;2.50;2.27;;;;;10.90;96466.00;;;;5047251;28;20199;-63
2024/01/09 12:06:26;;;;;;;2.93;2.73;;;;;12.50;96469.00;;;;5051182;28;20692;-63
2024/01/09 12:08:54;;;;;;;2.30;2.07;;;;;13.90;96469.00;;;;5051359;28;20223;-64
2024/01/09 12:11:21;;;;;;;2.07;1.87;;;;;13.40;96467.00;;;;5051360;28;20199;-62
2024/01/09 12:13:58;;;;;;;2.90;2.50;;;;;13.40;96471.00;;;;5051368;28;20199;-63
2024/01/09 12:16:25;;;;;;;2.33;2.13;;;;;15.50;96473.00;;;;5050679;28;20289;-62
2024/01/09 12:18:56;;;;;;;4.77;2.63;;;;;14.30;96467.00;;;;5050260;28;20210;-63
2024/01/09 12:21:26;;;;;;;3.17;2.87;;;;;14.70;96471.00;;;;5051304;28;20196;-63
2024/01/09 12:23:55;;;;;;;2.30;2.17;;;;;15.90;96486.00;;;;5047625;28;20987;-63